createdAt,value
2022-11-05T00:01:29.772Z,16.95
2022-11-05T00:05:08.491Z,13.73
2022-11-05T00:08:48.765Z,15.50
2022-11-05T00:12:30.816Z,16.35
2022-11-05T00:16:10.372Z,18.75
2022-11-05T00:19:31.801Z,15.82
2022-11-05T00:23:18.681Z,13.23
2022-11-05T00:26:41.507Z,12.90
2022-11-05T00:30:02.773Z,16.58
2022-11-05T00:33:24.521Z,13.98
2022-11-05T00:36:46.204Z,14.80
2022-11-05T00:40:08.791Z,14.23
2022-11-05T00:43:54.117Z,13.30
2022-11-05T00:47:33.161Z,14.43
2022-11-05T00:50:55.074Z,13.02
2022-11-05T00:54:16.660Z,14.27
2022-11-05T00:57:38.417Z,12.48
2022-11-05T01:01:02.154Z,11.65
2022-11-05T01:04:23.693Z,10.70
2022-11-05T01:07:44.955Z,13.77
2022-11-05T01:11:11.441Z,13.70
2022-11-05T01:14:32.906Z,11.68
2022-11-05T01:17:55.933Z,10.50
2022-11-05T01:21:17.684Z,10.33
2022-11-05T01:24:38.883Z,12.48
2022-11-05T01:28:00.313Z,11.55
2022-11-05T01:31:21.972Z,9.55
2022-11-05T01:34:45.189Z,10.50
2022-11-05T01:38:06.553Z,9.57
2022-11-05T01:41:27.910Z,9.93
2022-11-05T01:45:14.389Z,11.88
2022-11-05T01:48:37.573Z,11.00
2022-11-05T01:52:04.493Z,12.52
2022-11-05T01:55:30.026Z,12.13
2022-11-05T01:58:55.812Z,11.32
2022-11-05T02:02:19.231Z,9.68
2022-11-05T02:05:41.920Z,10.88
2022-11-05T02:09:09.465Z,12.45
2022-11-05T02:12:31.463Z,13.13
2022-11-05T02:16:00.314Z,15.98
2022-11-05T02:19:58.276Z,10.07
2022-11-05T02:23:54.675Z,10.70
2022-11-05T02:27:39.494Z,12.98
2022-11-05T02:31:05.222Z,13.75
2022-11-05T02:34:36.619Z,10.13
2022-11-05T02:38:05.838Z,10.48
2022-11-05T02:41:35.069Z,11.25
2022-11-05T02:45:06.969Z,9.57
2022-11-05T02:48:37.341Z,7.30
2022-11-05T02:51:59.860Z,9.48
2022-11-05T02:55:28.377Z,10.00
2022-11-05T02:58:49.951Z,8.90
2022-11-05T03:02:12.010Z,11.70
2022-11-05T03:05:44.616Z,16.27
2022-11-05T03:09:42.993Z,9.32
2022-11-05T03:13:15.196Z,10.83
2022-11-05T03:16:41.394Z,8.97
2022-11-05T03:20:11.300Z,9.57
2022-11-05T03:23:42.992Z,8.17
2022-11-05T03:27:09.935Z,8.63
2022-11-05T03:30:33.810Z,7.60
2022-11-05T03:33:56.818Z,8.63
2022-11-05T03:37:21.195Z,9.97
2022-11-05T03:40:48.582Z,10.07
2022-11-05T03:44:13.839Z,7.60
2022-11-05T03:47:40.571Z,7.03
2022-11-05T03:51:07.671Z,6.37
2022-11-05T03:54:29.529Z,7.57
2022-11-05T03:57:56.749Z,9.25
2022-11-05T04:01:18.163Z,10.13
2022-11-05T04:04:40.276Z,7.70
2022-11-05T04:08:18.980Z,9.20
2022-11-05T04:11:57.869Z,5.63
2022-11-05T04:15:20.806Z,8.40
2022-11-05T04:18:41.477Z,6.33
2022-11-05T04:22:20.313Z,6.67
2022-11-05T04:25:41.629Z,8.17
2022-11-05T04:29:20.607Z,11.93
2022-11-05T04:32:43.480Z,5.40
2022-11-05T04:36:04.945Z,8.23
2022-11-05T04:39:26.317Z,5.97
2022-11-05T04:42:47.906Z,10.67
2022-11-05T04:46:09.239Z,7.33
2022-11-05T04:49:31.959Z,6.97
2022-11-05T04:52:53.605Z,11.47
2022-11-05T04:56:19.813Z,8.05
2022-11-05T04:59:41.788Z,10.87
2022-11-05T05:03:03.272Z,9.43
2022-11-05T05:06:25.936Z,8.00
2022-11-05T05:09:47.333Z,9.43
2022-11-05T05:13:10.839Z,9.57
2022-11-05T05:16:32.402Z,7.47
2022-11-05T05:20:11.532Z,11.97
2022-11-05T05:23:34.500Z,8.50
2022-11-05T05:26:56.541Z,9.73
2022-11-05T05:30:18.081Z,13.43
2022-11-05T05:33:39.468Z,5.60
2022-11-05T05:37:03.128Z,6.77
2022-11-05T05:40:26.242Z,11.40
2022-11-05T05:43:47.779Z,10.27
2022-11-05T05:47:09.175Z,6.80
2022-11-05T05:50:30.422Z,6.33
2022-11-05T05:54:01.658Z,8.63
2022-11-05T05:57:24.874Z,6.30
2022-11-05T06:00:46.503Z,8.37
2022-11-05T06:04:08.123Z,9.77
2022-11-05T06:07:33.113Z,7.90
2022-11-05T06:10:59.520Z,11.53
2022-11-05T06:14:22.684Z,12.20
2022-11-05T06:17:44.576Z,11.20
2022-11-05T06:21:07.765Z,9.40
2022-11-05T06:24:32.053Z,11.20
2022-11-05T06:27:56.287Z,8.43
2022-11-05T06:31:27.015Z,12.23
2022-11-05T06:34:58.494Z,12.13
2022-11-05T06:38:20.667Z,12.70
2022-11-05T06:42:22.596Z,9.80
2022-11-05T06:46:04.014Z,7.17
2022-11-05T06:49:49.431Z,6.50
2022-11-05T06:53:23.426Z,9.50
2022-11-05T06:57:11.439Z,10.60
2022-11-05T07:00:34.829Z,10.17
2022-11-05T07:04:00.404Z,8.43
2022-11-05T07:07:23.581Z,11.33
2022-11-05T07:10:52.122Z,15.30
2022-11-05T07:14:20.306Z,9.97
2022-11-05T07:28:43.052Z,9.73
2022-11-05T07:36:21.245Z,14.57
2022-11-05T07:39:47.123Z,13.33
2022-11-05T07:43:20.943Z,15.43
2022-11-05T07:46:42.902Z,11.13
2022-11-05T08:01:10.200Z,13.33
2022-11-05T08:05:30.866Z,13.33
2022-11-05T08:09:48.957Z,13.93
2022-11-05T08:13:39.298Z,12.67
2022-11-05T08:17:11.595Z,19.03
2022-11-05T08:20:42.620Z,16.47
2022-11-05T08:29:58.712Z,17.03
2022-11-05T08:33:28.492Z,14.17
2022-11-05T08:37:01.965Z,14.60
2022-11-05T08:40:38.121Z,16.30
2022-11-05T08:54:59.605Z,12.60
2022-11-05T09:23:59.739Z,14.67
2022-11-05T09:27:59.880Z,14.67
2022-11-05T09:48:22.648Z,15.23
2022-11-05T10:34:24.709Z,10.13
2022-11-05T10:44:14.751Z,7.93
2022-11-05T11:11:44.973Z,8.93
2022-11-05T11:15:58.087Z,8.20
2022-11-05T11:26:06.482Z,7.37
2022-11-05T11:36:07.782Z,7.77
2022-11-05T11:53:05.139Z,5.50
2022-11-05T12:03:01.823Z,9.33
2022-11-05T12:06:46.313Z,8.80
2022-11-05T12:16:00.031Z,7.85
2022-11-05T12:20:20.988Z,6.93
2022-11-05T12:29:43.870Z,9.88
2022-11-05T12:33:31.103Z,5.72
2022-11-05T12:47:03.887Z,8.02
2022-11-05T12:51:08.698Z,6.63
2022-11-05T12:55:52.697Z,7.75
2022-11-05T13:04:41.069Z,5.18
2022-11-05T13:08:07.443Z,8.20
2022-11-05T13:11:59.423Z,7.53
2022-11-05T13:15:28.505Z,5.30
2022-11-05T13:18:54.371Z,7.00
2022-11-05T13:22:51.211Z,6.63
2022-11-05T13:26:25.994Z,7.45
2022-11-05T13:29:51.102Z,9.93
2022-11-05T13:33:15.951Z,4.82
2022-11-05T13:37:05.472Z,7.00
2022-11-05T13:40:41.671Z,9.55
2022-11-05T13:44:25.986Z,5.25
2022-11-05T13:48:03.327Z,4.18
2022-11-05T13:52:07.540Z,5.40
2022-11-05T13:55:54.103Z,6.68
2022-11-05T13:59:46.490Z,11.10
2022-11-05T14:03:17.097Z,13.05
2022-11-05T14:06:38.758Z,3.67
2022-11-05T14:10:03.012Z,8.32
2022-11-05T14:13:32.250Z,7.28
2022-11-05T14:16:56.201Z,7.25
2022-11-05T14:20:43.303Z,8.07
2022-11-05T14:24:26.874Z,5.28
2022-11-05T14:27:54.430Z,5.03
2022-11-05T14:32:07.222Z,6.60
2022-11-05T14:35:38.063Z,5.85
2022-11-05T14:39:13.321Z,5.50
2022-11-05T14:43:25.975Z,7.63
2022-11-05T14:46:56.057Z,8.18
2022-11-05T14:50:25.865Z,8.32
2022-11-05T14:53:48.315Z,5.55
2022-11-05T14:57:14.200Z,11.60
2022-11-05T15:00:45.532Z,9.93
2022-11-05T15:04:19.588Z,7.13
2022-11-05T15:07:40.954Z,8.55
2022-11-05T15:11:13.654Z,6.32
2022-11-05T15:14:42.306Z,7.75
2022-11-05T15:18:11.575Z,12.63
2022-11-05T15:21:39.152Z,6.57
2022-11-05T15:26:01.222Z,8.23
2022-11-05T15:29:46.672Z,10.75
2022-11-05T15:33:20.283Z,12.35
2022-11-05T15:40:44.870Z,9.95
2022-11-05T15:44:24.189Z,10.60
2022-11-05T15:47:46.942Z,6.50
2022-11-05T15:51:08.370Z,6.10
2022-11-05T15:54:31.611Z,10.75
2022-11-05T15:58:02.704Z,4.75
2022-11-05T16:01:29.057Z,8.10
2022-11-05T16:04:56.323Z,11.05
2022-11-05T16:08:27.788Z,7.10
2022-11-05T16:12:13.618Z,8.15
2022-11-05T16:15:35.464Z,5.97
2022-11-05T16:19:42.135Z,11.30
2022-11-05T16:23:05.173Z,9.47
2022-11-05T16:27:00.444Z,9.07
2022-11-05T16:30:20.112Z,7.00
2022-11-05T16:33:54.310Z,8.13
2022-11-05T16:37:24.817Z,8.47
2022-11-05T16:40:47.680Z,13.50
2022-11-05T16:44:10.421Z,12.20
2022-11-05T16:47:33.760Z,11.90
2022-11-05T16:50:55.716Z,10.90
2022-11-05T16:54:17.226Z,6.63
2022-11-05T16:57:47.361Z,8.30
2022-11-05T17:01:20.933Z,9.43
2022-11-05T17:04:43.553Z,6.53
2022-11-05T17:08:05.286Z,13.90
2022-11-05T17:11:31.003Z,33.47
2022-11-05T17:14:52.197Z,43.27
2022-11-05T17:18:25.294Z,16.73
2022-11-05T17:21:50.033Z,11.90
2022-11-05T17:25:11.739Z,14.63
2022-11-05T17:28:35.858Z,14.20
2022-11-05T17:31:57.361Z,9.23
2022-11-05T17:35:18.915Z,9.53
2022-11-05T17:38:47.529Z,9.93
2022-11-05T17:42:11.162Z,13.37
2022-11-05T17:45:33.446Z,15.47
2022-11-05T17:49:03.634Z,16.03
2022-11-05T17:52:50.333Z,17.90
2022-11-05T17:56:59.218Z,18.33
2022-11-05T18:00:26.806Z,15.27
2022-11-05T18:03:48.646Z,13.23
2022-11-05T18:07:10.517Z,10.10
2022-11-05T18:10:32.381Z,12.07
2022-11-05T18:13:54.112Z,13.30
2022-11-05T18:17:17.336Z,18.07
2022-11-05T18:20:39.708Z,13.70
2022-11-05T18:24:06.656Z,11.10
2022-11-05T18:27:28.481Z,11.30
2022-11-05T18:30:50.183Z,14.63
2022-11-05T18:34:27.259Z,10.83
2022-11-05T18:37:48.718Z,13.30
2022-11-05T18:41:10.066Z,13.50
2022-11-05T18:44:36.259Z,9.57
2022-11-05T18:48:01.670Z,16.70
2022-11-05T18:51:24.673Z,13.27
2022-11-05T18:54:46.123Z,12.53
2022-11-05T18:58:32.467Z,13.87
2022-11-05T19:01:55.981Z,17.20
2022-11-05T19:05:33.192Z,24.57
2022-11-05T19:09:13.105Z,21.60
2022-11-05T19:12:36.302Z,15.67
2022-11-05T19:16:09.410Z,11.97
2022-11-05T19:19:30.701Z,10.53
2022-11-05T19:27:45.236Z,11.30
2022-11-05T19:31:18.672Z,10.00
2022-11-05T19:34:40.348Z,14.17
2022-11-05T19:38:02.229Z,12.80
2022-11-05T19:41:27.902Z,17.03
2022-11-05T19:44:50.743Z,13.33
2022-11-05T19:48:17.849Z,16.73
2022-11-05T19:52:10.299Z,18.80
2022-11-05T19:56:17.151Z,15.20
2022-11-05T19:59:50.488Z,21.23
2022-11-05T20:03:14.004Z,18.87
2022-11-05T20:06:38.867Z,14.77
2022-11-05T20:10:00.517Z,23.60
2022-11-05T20:13:22.347Z,25.67
2022-11-05T20:16:58.454Z,21.50
2022-11-05T20:20:24.223Z,22.70
2022-11-05T20:23:48.439Z,21.77
2022-11-05T20:27:11.380Z,21.70
2022-11-05T20:30:39.799Z,23.10
2022-11-05T20:34:01.705Z,18.80
2022-11-05T20:38:05.016Z,23.87
2022-11-05T20:41:27.604Z,18.80
2022-11-05T20:44:56.080Z,19.60
2022-11-05T20:48:19.543Z,22.17
2022-11-05T20:51:41.570Z,18.00
2022-11-05T20:55:09.099Z,18.23
2022-11-05T20:58:38.254Z,16.90
2022-11-05T21:02:03.705Z,17.57
2022-11-05T21:05:25.290Z,16.00
2022-11-05T21:08:52.985Z,16.73
2022-11-05T21:12:20.406Z,18.73
2022-11-05T21:15:51.073Z,18.00
2022-11-05T21:19:12.737Z,21.83
2022-11-05T21:22:35.692Z,21.87
2022-11-05T21:25:59.910Z,21.73
2022-11-05T21:29:23.206Z,25.63
2022-11-05T21:32:44.463Z,25.77
2022-11-05T21:36:10.738Z,24.63
2022-11-05T21:39:35.120Z,18.70
2022-11-05T21:44:08.905Z,17.07
2022-11-05T21:47:32.237Z,17.90
2022-11-05T21:51:17.894Z,15.57
2022-11-05T21:54:57.138Z,16.63
2022-11-05T21:58:42.387Z,15.17
2022-11-05T22:02:09.949Z,15.50
2022-11-05T22:05:42.086Z,16.33
2022-11-05T22:09:13.431Z,20.00
2022-11-05T22:12:35.288Z,19.83
2022-11-05T22:15:57.963Z,21.17
2022-11-05T22:19:20.312Z,18.40
2022-11-05T22:22:44.440Z,18.70
2022-11-05T22:26:05.985Z,14.73
2022-11-05T22:29:28.434Z,21.47
2022-11-05T22:32:50.099Z,17.67
2022-11-05T22:36:11.819Z,17.53
2022-11-05T22:39:37.135Z,17.37
2022-11-05T22:43:03.747Z,17.10
2022-11-05T22:46:29.635Z,18.80
2022-11-05T22:49:51.200Z,14.50
2022-11-05T22:53:12.777Z,18.23
2022-11-05T22:56:38.256Z,14.50
2022-11-05T22:59:59.984Z,17.73
2022-11-05T23:03:30.201Z,12.20
2022-11-05T23:07:14.542Z,16.80
2022-11-05T23:10:56.423Z,17.63
2022-11-05T23:14:21.910Z,15.60
2022-11-05T23:18:00.479Z,16.43
2022-11-05T23:21:39.496Z,17.77
2022-11-05T23:25:01.340Z,19.20
2022-11-05T23:28:26.117Z,20.17
2022-11-05T23:32:07.036Z,18.73
2022-11-05T23:35:54.949Z,23.27
2022-11-05T23:39:16.762Z,23.80
2022-11-05T23:42:56.868Z,23.33
2022-11-05T23:46:35.820Z,20.37
2022-11-05T23:49:58.571Z,20.63
2022-11-05T23:53:21.522Z,24.77
2022-11-05T23:56:42.940Z,17.57
